Time;durP1;ratioP1;P1;durP2;ratioP2;P2;SDS_P1;SDS_P2;PMS_P1;PMS_P2;Temp;Humidity;BMP_temperature;BMP_pressure;BME280_temperature;BME280_humidity;BME280_pressure;Samples;Min_cycle;Max_cycle;Signal;HPM_P1;HPM_P2
2022/11/18 00:01:20;;;;;;;83.28;74.80;;;;;;;4.20;100.00;100053.78;5049912;28;20057;-85
2022/11/18 00:03:47;;;;;;;81.03;72.88;;;;;;;4.13;100.00;100064.19;5048514;28;20142;-84
2022/11/18 00:06:17;;;;;;;71.32;64.07;;;;;;;4.01;100.00;100057.75;5050394;28;20107;-85
2022/11/18 00:08:44;;;;;;;72.20;65.05;;;;;;;3.85;100.00;100059.53;5050226;28;20052;-82
2022/11/18 00:14:17;;;;;;;69.78;62.33;;;;;;;3.80;100.00;100059.25;5047735;28;20450;-85
2022/11/18 00:16:43;;;;;;;52.63;42.92;;;;;;;3.54;100.00;100054.38;5043046;28;20048;-83
2022/11/18 00:19:10;;;;;;;53.75;44.30;;;;;;;3.60;100.00;100060.72;5047998;28;20470;-82
2022/11/18 00:21:38;;;;;;;57.85;47.22;;;;;;;3.51;100.00;100059.16;5045978;28;20454;-84
2022/11/18 00:24:06;;;;;;;71.05;63.47;;;;;;;3.53;100.00;100059.81;5041883;28;20049;-82
2022/11/18 00:26:32;;;;;;;69.40;62.10;;;;;;;3.63;100.00;100058.59;5046241;28;20390;-84
2022/11/18 00:28:59;;;;;;;65.70;58.55;;;;;;;3.25;100.00;100059.50;5054557;28;20049;-81
2022/11/18 00:31:26;;;;;;;63.85;57.00;;;;;;;3.33;100.00;100060.28;5054451;28;20056;-84
2022/11/18 00:33:52;;;;;;;70.90;63.92;;;;;;;3.42;100.00;100061.03;5052663;28;20465;-84
2022/11/18 00:36:19;;;;;;;76.30;68.88;;;;;;;3.48;100.00;100064.75;5057294;28;20053;-84
2022/11/18 00:38:47;;;;;;;74.20;66.57;;;;;;;3.39;100.00;100058.78;5052759;28;20049;-83
2022/11/18 00:41:16;;;;;;;81.40;73.90;;;;;;;3.32;100.00;100053.38;5042444;28;20380;-84
2022/11/18 00:43:42;;;;;;;77.15;69.55;;;;;;;3.27;100.00;100047.84;5049527;28;20106;-82
2022/11/18 00:46:11;;;;;;;55.00;47.13;;;;;;;3.23;100.00;100054.44;5042859;28;20379;-82
2022/11/18 00:48:37;;;;;;;66.90;52.40;;;;;;;3.15;100.00;100057.94;5045054;28;20057;-84
2022/11/18 00:51:10;;;;;;;65.18;52.10;;;;;;;3.32;100.00;100063.88;5053900;28;20048;-83
2022/11/18 00:53:36;;;;;;;70.40;54.70;;;;;;;3.30;100.00;100059.78;5052342;28;20049;-83
2022/11/18 00:56:05;;;;;;;64.68;52.53;;;;;;;3.10;100.00;100057.63;5057981;28;20371;-83
2022/11/18 00:58:33;;;;;;;73.28;66.05;;;;;;;3.05;100.00;100052.06;5050189;28;20049;-83
2022/11/18 01:01:00;;;;;;;63.08;56.67;;;;;;;3.05;100.00;100053.88;5152555;22;20045;-84
2022/11/18 01:03:28;;;;;;;63.67;57.22;;;;;;;3.12;100.00;100053.03;5026207;28;20058;-82
2022/11/18 01:05:55;;;;;;;63.88;57.42;;;;;;;3.14;100.00;100060.72;5029914;28;20057;-83
2022/11/18 01:08:24;;;;;;;65.68;59.50;;;;;;;3.13;100.00;100048.59;5023879;28;20049;-85
2022/11/18 01:10:51;;;;;;;77.53;70.15;;;;;;;3.01;100.00;100045.53;5025562;28;20054;-83
2022/11/18 01:13:20;;;;;;;79.70;72.13;;;;;;;2.97;100.00;100050.31;5023354;28;20046;-83
2022/11/18 01:15:49;;;;;;;71.78;64.70;;;;;;;2.98;100.00;100043.28;5027748;28;20081;-84
2022/11/18 01:18:16;;;;;;;80.15;71.85;;;;;;;2.94;100.00;100050.66;5030586;28;20049;-84
2022/11/18 01:20:43;;;;;;;75.07;67.65;;;;;;;3.05;100.00;100051.25;5027548;28;20050;-85
2022/11/18 01:23:10;;;;;;;71.32;64.10;;;;;;;2.98;100.00;100038.03;5035374;28;20430;-83
2022/11/18 01:25:38;;;;;;;80.88;72.78;;;;;;;2.78;100.00;100031.56;5039293;28;20049;-83
2022/11/18 01:28:05;;;;;;;78.40;70.28;;;;;;;2.62;100.00;100035.91;5031687;28;20115;-82
2022/11/18 01:30:35;;;;;;;71.70;64.80;;;;;;;2.76;100.00;100034.38;5033463;28;20046;-84
2022/11/18 01:33:04;;;;;;;63.72;57.13;;;;;;;2.66;100.00;100023.25;5026958;28;20111;-82
2022/11/18 01:35:34;;;;;;;66.85;60.28;;;;;;;2.78;100.00;100021.88;5031973;28;20103;-81
2022/11/18 01:38:02;;;;;;;50.60;43.95;;;;;;;2.88;100.00;100019.06;5026715;28;20046;-84
2022/11/18 01:40:30;;;;;;;50.80;44.42;;;;;;;2.94;100.00;100023.63;5028415;28;20053;-85
2022/11/18 01:42:57;;;;;;;49.88;44.47;;;;;;;2.64;100.00;100015.59;5031879;28;20053;-83
2022/11/18 01:45:32;;;;;;;60.90;54.53;;;;;;;2.63;100.00;100023.59;5030215;28;20045;-84
2022/11/18 01:48:07;;;;;;;60.28;54.63;;;;;;;2.70;100.00;100027.19;5035483;28;20083;-82
2022/11/18 01:50:37;;;;;;;60.13;54.50;;;;;;;2.86;100.00;100019.22;5030745;28;20065;-82
2022/11/18 01:53:08;;;;;;;59.75;54.10;;;;;;;2.77;100.00;100020.25;5029129;28;20251;-83
2022/11/18 01:55:41;;;;;;;58.90;53.17;;;;;;;2.84;100.00;100015.94;5026705;28;20042;-85
2022/11/18 01:58:14;;;;;;;62.45;56.17;;;;;;;2.91;100.00;100019.53;5022128;28;20050;-83
2022/11/18 02:00:41;;;;;;;62.47;56.55;;;;;;;2.70;100.00;100017.50;5028406;28;20053;-85
2022/11/18 02:03:09;;;;;;;63.08;56.97;;;;;;;2.75;100.00;100028.31;5026741;28;20461;-84
2022/11/18 02:05:39;;;;;;;69.65;62.88;;;;;;;2.70;100.00;100028.00;5033602;28;20049;-84
2022/11/18 02:08:07;;;;;;;68.65;61.75;;;;;;;2.70;100.00;100024.56;5031757;28;20375;-85
2022/11/18 02:10:34;;;;;;;71.80;64.50;;;;;;;2.81;100.00;100025.97;5025581;28;20058;-84
2022/11/18 02:13:01;;;;;;;66.28;59.55;;;;;;;2.77;100.00;100020.25;5021900;28;20054;-85
2022/11/18 02:15:45;;;;;;;66.60;54.65;;;;;;;2.61;100.00;100030.84;5028775;28;20103;-83
2022/11/18 02:18:24;;;;;;;58.72;51.45;;;;;;;2.68;100.00;100024.72;5021423;28;20049;-83
2022/11/18 02:20:55;;;;;;;66.82;52.55;;;;;;;2.63;100.00;100026.22;5030555;28;20045;-83
2022/11/18 02:24:04;;;;;;;61.30;50.20;;;;;;;2.70;100.00;100028.00;5026621;28;20141;-82
2022/11/18 02:27:02;;;;;;;55.53;47.78;;;;;;;2.71;100.00;100020.94;5017970;28;20453;-84
2022/11/18 02:29:38;;;;;;;58.33;49.17;;;;;;;2.76;100.00;100031.75;5025962;28;20458;-83
2022/11/18 02:32:10;;;;;;;61.25;51.28;;;;;;;2.75;100.00;100027.47;5034133;28;20574;-82
2022/11/18 02:34:44;;;;;;;56.90;50.10;;;;;;;2.81;100.00;100023.34;5026758;28;20064;-83
2022/11/18 02:37:18;;;;;;;59.60;50.63;;;;;;;2.74;100.00;100029.28;5031653;28;20109;-85
2022/11/18 02:39:52;;;;;;;57.47;50.47;;;;;;;2.79;100.00;100033.22;5030365;28;20053;-83
2022/11/18 02:42:20;;;;;;;53.53;46.95;;;;;;;2.67;100.00;100030.16;5023864;28;20061;-82
2022/11/18 02:44:54;;;;;;;58.88;50.10;;;;;;;2.94;100.00;100034.13;5026753;28;20065;-82
2022/11/18 02:47:24;;;;;;;55.38;48.10;;;;;;;2.82;100.00;100031.06;5026872;28;20049;-82
2022/11/18 02:49:55;;;;;;;59.40;51.15;;;;;;;2.81;100.00;100029.41;5034305;28;20041;-85
2022/11/18 02:52:24;;;;;;;58.50;50.47;;;;;;;2.95;100.00;100026.06;5028423;28;20092;-82
2022/11/18 02:54:52;;;;;;;105.45;77.93;;;;;;;2.80;100.00;100024.34;5025631;28;20456;-82
2022/11/18 02:57:21;;;;;;;81.03;66.10;;;;;;;2.81;100.00;100024.16;5034357;28;20492;-86
2022/11/18 02:59:49;;;;;;;77.22;60.30;;;;;;;2.45;100.00;100022.06;5024168;28;20046;-83
2022/11/18 03:02:18;;;;;;;67.65;56.72;;;;;;;2.97;100.00;100031.16;5022770;28;20054;-84
2022/11/18 03:04:47;;;;;;;65.97;56.70;;;;;;;3.09;100.00;100028.94;5026953;28;20045;-84
2022/11/18 03:07:22;;;;;;;64.45;57.55;;;;;;;2.91;100.00;100024.78;5025731;28;20107;-84
2022/11/18 03:09:52;;;;;;;60.13;52.63;;;;;;;2.78;100.00;100023.69;5026051;28;20477;-84
2022/11/18 03:12:29;;;;;;;55.90;49.38;;;;;;;2.57;100.00;100027.72;5028272;28;20402;-85
2022/11/18 03:15:07;;;;;;;55.38;47.70;;;;;;;2.73;100.00;100030.28;5022297;28;20038;-82
2022/11/18 03:17:45;;;;;;;49.75;44.42;;;;;;;2.92;100.00;100030.84;5024970;28;20049;-83
2022/11/18 03:20:21;;;;;;;51.97;46.38;;;;;;;2.75;100.00;100038.81;5020756;28;20046;-85
2022/11/18 03:22:55;;;;;;;50.35;44.78;;;;;;;2.75;100.00;100040.59;5019641;28;20045;-83
2022/11/18 03:25:29;;;;;;;58.08;49.08;;;;;;;2.85;100.00;100035.16;5027873;28;20455;-84
2022/11/18 03:28:07;;;;;;;60.35;51.25;;;;;;;2.89;100.00;100044.31;5025270;28;20457;-84
2022/11/18 03:30:39;;;;;;;60.60;52.67;;;;;;;2.78;100.00;100037.63;5033850;28;20060;-84
2022/11/18 03:33:12;;;;;;;84.85;61.55;;;;;;;2.80;100.00;100030.41;5028891;28;20449;-84
2022/11/18 03:35:43;;;;;;;58.65;50.30;;;;;;;2.41;100.00;100033.84;5025928;28;20050;-83
2022/11/18 03:38:14;;;;;;;75.38;58.38;;;;;;;2.73;100.00;100032.09;5025589;28;20038;-84
2022/11/18 03:40:48;;;;;;;97.63;66.03;;;;;;;2.90;100.00;100030.19;5028270;28;20046;-82
2022/11/18 03:43:20;;;;;;;137.90;86.20;;;;;;;2.93;100.00;100032.47;5029615;28;20049;-83
2022/11/18 03:45:51;;;;;;;118.03;80.90;;;;;;;2.77;100.00;100028.13;5032277;28;20100;-84
2022/11/18 03:48:20;;;;;;;141.85;87.32;;;;;;;2.75;100.00;100028.31;5026999;28;20053;-84
2022/11/18 03:50:50;;;;;;;160.20;97.25;;;;;;;2.84;100.00;100031.69;5022544;28;20041;-84
2022/11/18 03:53:20;;;;;;;125.05;84.03;;;;;;;2.97;100.00;100029.34;5031650;28;20054;-82
2022/11/18 03:55:51;;;;;;;111.40;75.00;;;;;;;2.65;100.00;100022.44;5019955;28;20386;-84
2022/11/18 03:58:25;;;;;;;116.80;76.00;;;;;;;2.81;100.00;100028.59;5022790;28;20046;-84
2022/11/18 04:00:59;;;;;;;111.88;75.43;;;;;;;2.79;100.00;100028.78;5034071;28;20060;-84
2022/11/18 04:03:26;;;;;;;113.47;75.00;;;;;;;2.61;100.00;100034.28;5033023;28;20045;-82
2022/11/18 04:06:02;;;;;;;99.50;78.97;;;;;;;2.65;100.00;100043.44;5035232;28;20060;-84
2022/11/18 04:08:35;;;;;;;91.80;71.07;;;;;;;2.77;100.00;100043.88;5038004;28;20119;-83
2022/11/18 04:11:09;;;;;;;82.63;70.30;;;;;;;2.77;100.00;100032.56;5028134;28;20054;-83
2022/11/18 04:13:38;;;;;;;93.40;78.28;;;;;;;2.73;100.00;100040.78;5027025;28;20053;-84
2022/11/18 04:16:08;;;;;;;99.22;82.15;;;;;;;2.76;100.00;100037.00;5028784;28;20041;-83
2022/11/18 04:18:35;;;;;;;85.13;66.93;;;;;;;2.71;100.00;100034.88;5028188;28;20053;-82
2022/11/18 04:21:02;;;;;;;81.43;64.57;;;;;;;2.79;100.00;100027.97;5035977;28;20143;-84
2022/11/18 04:23:28;;;;;;;85.30;71.82;;;;;;;2.77;100.00;100035.19;5022373;28;20540;-84
2022/11/18 04:25:55;;;;;;;80.10;67.15;;;;;;;2.37;100.00;100035.19;5035742;28;20057;-84
2022/11/18 04:28:22;;;;;;;75.72;67.38;;;;;;;2.52;100.00;100040.53;5036017;28;20049;-84
2022/11/18 04:30:49;;;;;;;80.72;71.68;;;;;;;2.65;100.00;100035.56;5029763;28;20050;-84
2022/11/18 04:33:17;;;;;;;76.28;67.95;;;;;;;2.78;100.00;100042.88;5026891;28;20057;-83
2022/11/18 04:35:46;;;;;;;76.05;68.30;;;;;;;2.66;100.00;100039.84;5031558;28;20042;-83
2022/11/18 04:38:13;;;;;;;60.35;54.00;;;;;;;2.52;100.00;100054.47;5031730;28;20613;-84
2022/11/18 04:40:40;;;;;;;58.25;52.30;;;;;;;2.67;100.00;100051.13;5029543;28;20045;-84
2022/11/18 04:43:06;;;;;;;62.53;56.40;;;;;;;2.52;100.00;100043.97;5032085;28;20104;-83
2022/11/18 04:45:33;;;;;;;62.28;56.17;;;;;;;2.39;100.00;100048.94;5027973;28;20496;-84
2022/11/18 04:48:00;;;;;;;56.75;47.08;;;;;;;2.16;100.00;100045.41;5028038;28;20088;-83
2022/11/18 04:50:28;;;;;;;59.25;48.80;;;;;;;2.41;100.00;100049.56;5026487;28;20042;-83
2022/11/18 04:52:54;;;;;;;65.68;54.53;;;;;;;2.45;100.00;100047.44;5025719;28;20049;-83
2022/11/18 04:55:21;;;;;;;67.25;55.38;;;;;;;2.28;100.00;100046.69;5027949;28;20555;-87
2022/11/18 04:57:48;;;;;;;69.65;52.75;;;;;;;2.38;100.00;100047.28;5023395;28;20409;-85
2022/11/18 05:00:18;;;;;;;70.07;54.83;;;;;;;2.61;100.00;100055.25;5021320;28;20046;-84
2022/11/18 05:02:44;;;;;;;55.45;49.40;;;;;;;2.62;100.00;100053.44;4991590;28;20448;-83
2022/11/18 05:05:11;;;;;;;57.60;49.72;;;;;;;2.76;100.00;100052.72;5026985;28;20042;-84
2022/11/18 05:07:39;;;;;;;55.65;46.90;;;;;;;2.63;100.00;100060.31;5030599;28;20107;-83
2022/11/18 05:10:07;;;;;;;47.33;42.25;;;;;;;2.48;100.00;100066.28;5029882;28;20042;-86
2022/11/18 05:12:47;;;;;;;52.90;46.00;;;;;;;2.64;100.00;100060.16;5033706;28;20061;-83
2022/11/18 05:15:14;;;;;;;94.40;65.57;;;;;;;2.49;100.00;100065.28;5023756;28;20057;-84
2022/11/18 05:17:41;;;;;;;115.85;77.20;;;;;;;2.65;100.00;100063.59;5031183;28;20394;-84
2022/11/18 05:20:09;;;;;;;106.53;71.97;;;;;;;2.53;100.00;100061.34;5028613;28;20208;-82
2022/11/18 05:22:35;;;;;;;144.63;91.15;;;;;;;2.42;100.00;100066.13;5029973;28;20099;-83
2022/11/18 05:25:04;;;;;;;175.85;99.05;;;;;;;2.30;100.00;100060.44;5032158;28;20049;-83
2022/11/18 05:27:30;;;;;;;144.73;89.82;;;;;;;2.48;100.00;100063.66;5034378;28;20057;-84
2022/11/18 05:29:57;;;;;;;135.60;86.35;;;;;;;2.51;100.00;100054.63;5035070;28;20456;-85
2022/11/18 05:32:24;;;;;;;108.95;73.18;;;;;;;2.71;100.00;100058.47;5030511;28;20108;-83
2022/11/18 05:34:57;;;;;;;115.43;71.68;;;;;;;2.87;100.00;100073.31;5028804;28;20533;-83
2022/11/18 05:37:24;;;;;;;113.60;73.63;;;;;;;2.82;100.00;100065.16;5021299;28;20460;-84
2022/11/18 05:39:58;;;;;;;107.95;71.97;;;;;;;2.97;100.00;100062.63;5022225;28;20111;-83
2022/11/18 05:45:11;;;;;;;119.70;75.60;;;;;;;3.16;100.00;100067.44;4980655;28;20052;-84
2022/11/18 05:50:18;;;;;;;117.40;76.32;;;;;;;3.44;100.00;100057.22;5025594;28;20069;-83
2022/11/18 05:52:45;;;;;;;110.38;77.20;;;;;;;3.59;100.00;100053.84;5036245;28;20049;-83
2022/11/18 05:55:13;;;;;;;126.40;82.88;;;;;;;3.90;100.00;100048.47;5027044;28;20045;-81
2022/11/18 05:57:42;;;;;;;119.43;81.63;;;;;;;4.22;100.00;100055.22;5025405;28;20076;-81
2022/11/18 06:00:11;;;;;;;149.85;104.18;;;;;;;4.48;100.00;100056.59;5030583;28;20053;-83
2022/11/18 06:02:38;;;;;;;119.00;87.07;;;;;;;4.79;100.00;100059.03;5028789;28;20122;-83
2022/11/18 06:05:05;;;;;;;152.25;86.72;;;;;;;4.93;100.00;100057.34;5033300;28;20046;-83
2022/11/18 06:07:38;;;;;;;61.50;50.88;;;;;;;5.11;100.00;100067.47;5025334;28;20049;-83
2022/11/18 06:10:05;;;;;;;50.53;45.60;;;;;;;5.42;100.00;100067.19;5022313;28;20072;-84
2022/11/18 06:12:37;;;;;;;74.75;57.42;;;;;;;5.77;100.00;100069.94;5031320;28;20053;-82
2022/11/18 06:15:09;;;;;;;69.97;62.17;;;;;;;5.78;100.00;100058.38;5031085;28;20541;-84
2022/11/18 06:17:42;;;;;;;59.53;53.65;;;;;;;6.07;100.00;100063.50;5025562;28;20496;-85
2022/11/18 06:20:10;;;;;;;57.03;51.33;;;;;;;6.41;100.00;100056.59;5028861;28;20465;-82
2022/11/18 06:22:37;;;;;;;57.22;51.65;;;;;;;6.73;100.00;100063.06;5029392;28;20053;-84
2022/11/18 06:25:06;;;;;;;61.03;55.00;;;;;;;6.91;100.00;100057.25;5026010;28;20049;-83
2022/11/18 06:27:34;;;;;;;60.58;54.70;;;;;;;8.15;100.00;100048.03;5031710;28;20058;-84
2022/11/18 06:30:01;;;;;;;60.38;54.63;;;;;;;7.54;100.00;100057.81;5032186;28;20045;-84
2022/11/18 06:32:29;;;;;;;60.72;54.88;;;;;;;8.57;100.00;100045.94;5028793;28;20127;-84
2022/11/18 06:34:56;;;;;;;59.13;53.58;;;;;;;9.29;100.00;100059.81;5026681;28;20060;-83
2022/11/18 06:37:22;;;;;;;53.75;48.63;;;;;;;9.85;100.00;100053.72;5033493;28;20123;-82
2022/11/18 06:39:49;;;;;;;53.83;49.10;;;;;;;10.20;100.00;100053.22;5024499;28;20049;-84
2022/11/18 06:44:57;;;;;;;55.10;50.45;;;;;;;10.50;100.00;100054.16;5033552;28;20088;-84
2022/11/18 06:47:23;;;;;;;42.85;40.13;;;;;;;10.55;100.00;100048.97;5026738;28;20405;-83
2022/11/18 06:49:51;;;;;;;43.80;40.95;;;;;;;11.23;100.00;100034.63;5034989;28;20046;-84
2022/11/18 06:52:18;;;;;;;44.05;41.05;;;;;;;11.41;100.00;100030.28;5021744;28;20449;-84
2022/11/18 06:54:45;;;;;;;42.67;40.08;;;;;;;11.21;100.00;100033.22;5028908;28;20117;-84
2022/11/18 06:57:11;;;;;;;43.17;40.38;;;;;;;11.29;100.00;100026.78;5021670;28;20041;-84
2022/11/18 06:59:38;;;;;;;42.95;40.25;;;;;;;11.68;100.00;100028.81;5017573;28;20465;-82
2022/11/18 07:02:05;;;;;;;46.55;43.70;;;;;;;11.97;100.00;100028.16;5022169;28;20506;-84
2022/11/18 07:04:32;;;;;;;47.22;43.40;;;;;;;12.09;100.00;100024.47;5023229;28;20045;-85
2022/11/18 07:07:00;;;;;;;46.70;43.42;;;;;;;11.96;100.00;100018.56;5026587;28;20052;-83
2022/11/18 07:09:27;;;;;;;44.85;42.10;;;;;;;12.13;100.00;100022.97;5021529;28;20054;-84
2022/11/18 07:11:54;;;;;;;44.22;41.63;;;;;;;12.48;100.00;100016.75;5022556;28;20045;-84
2022/11/18 07:14:20;;;;;;;44.22;41.42;;;;;;;12.48;100.00;100022.09;5023932;28;20060;-83
2022/11/18 07:16:47;;;;;;;44.10;41.25;;;;;;;12.50;100.00;100020.00;5024757;28;20046;-83
2022/11/18 07:19:14;;;;;;;45.55;42.75;;;;;;;12.87;100.00;100024.19;5028737;28;20065;-85
2022/11/18 07:21:42;;;;;;;43.50;40.90;;;;;;;13.04;100.00;100019.69;5020824;28;20050;-84
2022/11/18 07:24:12;;;;;;;44.25;41.55;;;;;;;13.01;100.00;100028.16;5025961;28;20401;-83
2022/11/18 07:26:39;;;;;;;43.72;41.17;;;;;;;13.30;100.00;100023.66;5017207;28;20545;-83
2022/11/18 07:29:06;;;;;;;45.78;42.88;;;;;;;13.54;100.00;100032.34;5034869;28;20049;-85
2022/11/18 07:31:34;;;;;;;43.17;40.58;;;;;;;13.77;100.00;100031.38;5031281;28;20532;-83
2022/11/18 07:34:01;;;;;;;45.65;42.65;;;;;;;13.67;100.00;100033.88;5028825;28;20052;-80
2022/11/18 07:36:29;;;;;;;55.78;52.38;;;;;;;13.75;100.00;100039.63;5035623;28;20049;-79
2022/11/18 07:38:58;;;;;;;54.30;51.40;;;;;;;13.64;100.00;100031.69;5029304;28;20054;-81
2022/11/18 07:41:28;;;;;;;53.83;50.72;;;;;;;13.51;100.00;100030.16;5023834;28;20060;-80
2022/11/18 07:43:56;;;;;;;54.42;51.38;;;;;;;14.30;100.00;100037.19;5022061;28;20112;-81
2022/11/18 07:46:25;;;;;;;50.08;47.03;;;;;;;15.13;100.00;100032.59;5031775;28;20061;-83
2022/11/18 07:48:53;;;;;;;53.35;50.20;;;;;;;15.52;100.00;100027.88;5021027;28;20057;-84
2022/11/18 07:51:22;;;;;;;50.63;47.63;;;;;;;15.99;100.00;100035.19;5025951;28;20054;-83
2022/11/18 07:53:50;;;;;;;51.70;48.72;;;;;;;15.73;100.00;100028.88;5021187;28;20473;-85
2022/11/18 07:56:18;;;;;;;51.92;49.03;;;;;;;14.95;100.00;100025.72;5018861;28;20046;-83
2022/11/18 07:58:47;;;;;;;47.25;44.47;;;;;;;15.28;100.00;100030.06;5026324;28;20064;-81
2022/11/18 08:01:16;;;;;;;47.40;44.70;;;;;;;15.64;100.00;100025.00;5027012;28;20061;-83
2022/11/18 08:03:44;;;;;;;47.08;44.28;;;;;;;16.00;100.00;100036.81;5019570;28;20082;-85
2022/11/18 08:06:13;;;;;;;48.33;45.65;;;;;;;16.11;100.00;100032.31;5016208;28;20049;-83
2022/11/18 08:08:40;;;;;;;46.05;43.47;;;;;;;16.82;100.00;100025.69;5023540;28;20042;-83
2022/11/18 08:11:10;;;;;;;46.00;43.35;;;;;;;17.54;100.00;100019.34;5023238;28;20057;-83
2022/11/18 08:13:37;;;;;;;48.85;45.97;;;;;;;17.84;100.00;100013.19;5022111;28;20050;-84
2022/11/18 08:16:13;;;;;;;49.53;46.65;;;;;;;17.43;100.00;100016.94;5025321;28;20120;-84
2022/11/18 08:18:40;;;;;;;45.25;42.75;;;;;;;17.62;100.00;100013.47;5015108;28;20124;-84
2022/11/18 08:21:07;;;;;;;45.45;42.75;;;;;;;18.15;100.00;100007.75;5026923;28;20474;-83
2022/11/18 08:23:34;;;;;;;46.92;44.45;;;;;;;19.13;100.00;100002.75;5018552;28;20165;-83
2022/11/18 08:26:06;;;;;;;45.45;42.95;;;;;;;19.06;100.00;99997.66;5025067;28;20382;-82
2022/11/18 08:28:33;;;;;;;52.50;49.70;;;;;;;19.24;100.00;99996.19;5020235;28;20128;-83
2022/11/18 08:31:00;;;;;;;49.92;46.92;;;;;;;18.13;100.00;99995.69;5023980;28;20095;-83
2022/11/18 08:33:28;;;;;;;48.28;45.83;;;;;;;19.17;100.00;99991.13;5024124;28;20049;-82
2022/11/18 08:35:55;;;;;;;50.58;47.97;;;;;;;19.70;100.00;99989.66;5023978;28;20367;-83
2022/11/18 08:38:22;;;;;;;49.38;46.80;;;;;;;18.41;100.00;99996.94;5021317;28;20057;-82
2022/11/18 08:40:49;;;;;;;47.10;44.70;;;;;;;19.76;100.00;99994.72;5028385;28;20128;-82
2022/11/18 08:43:16;;;;;;;45.90;43.50;;;;;;;20.11;100.00;99996.22;5022910;28;20038;-82
2022/11/18 08:45:43;;;;;;;50.92;48.33;;;;;;;20.17;100.00;99996.97;5023920;28;20378;-82
2022/11/18 08:48:10;;;;;;;52.58;49.88;;;;;;;20.72;100.00;99985.81;5022368;28;20116;-82
2022/11/18 08:50:38;;;;;;;53.25;50.47;;;;;;;20.46;100.00;99986.13;5033368;28;20037;-84
2022/11/18 08:53:05;;;;;;;53.40;50.75;;;;;;;20.56;100.00;99977.13;5029969;28;20077;-84
2022/11/18 08:55:32;;;;;;;48.80;46.30;;;;;;;20.91;100.00;99975.84;5026011;28;20045;-84
2022/11/18 08:57:59;;;;;;;47.92;45.42;;;;;;;20.29;100.00;99972.31;5027251;28;20092;-83
2022/11/18 09:00:28;;;;;;;49.13;46.45;;;;;;;19.87;100.00;99963.09;5029308;28;20049;-83
2022/11/18 09:02:54;;;;;;;47.72;45.13;;;;;;;19.92;100.00;99963.03;4985386;28;20053;-83
2022/11/18 09:05:21;;;;;;;49.40;46.70;;;;;;;20.94;100.00;99955.56;4988636;28;20051;-83
2022/11/18 09:07:50;;;;;;;56.20;53.28;;;;;;;21.20;96.24;99955.94;4992066;28;20046;-83
2022/11/18 09:10:17;;;;;;;47.75;44.95;;;;;;;21.05;90.35;99951.59;4986228;28;20061;-83
2022/11/18 09:12:43;;;;;;;48.25;45.60;;;;;;;22.42;96.51;99952.91;4988895;28;20565;-83
2022/11/18 09:15:11;;;;;;;50.08;47.28;;;;;;;21.13;71.62;99955.53;4985676;28;20059;-83
2022/11/18 09:17:37;;;;;;;47.38;44.78;;;;;;;20.56;100.00;99952.84;4981918;28;20043;-83
2022/11/18 09:20:05;;;;;;;47.83;45.13;;;;;;;21.62;98.68;99959.59;4989111;28;20042;-83
2022/11/18 09:22:32;;;;;;;47.13;44.53;;;;;;;21.73;99.64;99964.53;4992536;28;20054;-83
2022/11/18 09:25:00;;;;;;;48.45;45.85;;;;;;;20.35;92.44;99963.06;4985430;28;20039;-83
2022/11/18 09:27:27;;;;;;;46.83;44.33;;;;;;;19.61;100.00;99955.25;4991525;28;20043;-83
2022/11/18 09:29:54;;;;;;;49.25;46.65;;;;;;;21.49;100.00;99936.84;4988909;28;20446;-84
2022/11/18 09:32:21;;;;;;;50.63;47.78;;;;;;;22.15;97.67;99932.91;4987328;28;20054;-82
2022/11/18 09:34:48;;;;;;;49.38;46.78;;;;;;;21.77;94.75;99924.19;4985995;28;21248;-84
2022/11/18 09:37:15;;;;;;;51.42;48.53;;;;;;;22.69;84.60;99916.06;4987748;28;20042;-83
2022/11/18 09:39:42;;;;;;;47.58;44.72;;;;;;;23.42;82.55;99914.03;4986379;28;20042;-86
2022/11/18 09:42:41;;;;;;;48.85;46.08;;;;;;;23.01;77.29;99896.91;4979369;28;20085;-80
2022/11/18 09:45:23;;;;;;;53.80;50.70;;;;;;;22.36;86.88;99894.59;4988654;28;20057;-80
2022/11/18 09:47:51;;;;;;;50.45;47.60;;;;;;;22.96;88.47;99882.69;4988272;28;20086;-82
2022/11/18 09:50:21;;;;;;;47.65;45.20;;;;;;;23.66;77.90;99879.25;4987532;28;20042;-84
2022/11/18 09:53:03;;;;;;;48.22;45.83;;;;;;;23.46;73.44;99867.03;4988461;28;20050;-84
2022/11/18 09:55:30;;;;;;;47.20;44.58;;;;;;;23.46;80.01;99866.25;4992295;28;20050;-83
2022/11/18 09:58:00;;;;;;;47.90;45.30;;;;;;;24.49;73.37;99850.56;4988929;28;20053;-83
2022/11/18 10:00:32;;;;;;;46.92;44.50;;;;;;;23.75;70.01;99857.59;4984410;28;20472;-85
2022/11/18 10:03:01;;;;;;;49.15;46.55;;;;;;;22.93;66.60;99853.50;4989558;28;20073;-83
2022/11/18 10:05:30;;;;;;;48.15;45.65;;;;;;;22.17;73.98;99846.88;4987596;28;20430;-82
2022/11/18 10:08:05;;;;;;;45.15;42.92;;;;;;;22.13;84.68;99848.56;4987908;28;20046;-84
2022/11/18 10:10:45;;;;;;;45.13;42.83;;;;;;;22.58;83.39;99835.13;4986934;28;20046;-82
2022/11/18 10:13:25;;;;;;;47.00;44.60;;;;;;;22.11;73.81;99828.31;4982369;28;20428;-84
2022/11/18 10:16:00;;;;;;;46.92;44.63;;;;;;;21.53;97.65;99829.00;4984806;28;20108;-84
2022/11/18 10:18:33;;;;;;;47.33;44.92;;;;;;;21.41;100.00;99814.09;4986569;28;20068;-84
2022/11/18 10:21:08;;;;;;;47.92;45.53;;;;;;;21.30;100.00;99803.75;4984747;28;20482;-84
2022/11/18 10:23:42;;;;;;;48.13;45.78;;;;;;;21.83;100.00;99801.34;4985582;28;20132;-83
2022/11/18 10:26:09;;;;;;;49.47;46.92;;;;;;;21.92;99.85;99796.81;4984115;28;20487;-83
2022/11/18 10:28:38;;;;;;;49.90;47.30;;;;;;;21.86;100.00;99795.34;4986257;28;20112;-83
2022/11/18 10:31:07;;;;;;;49.20;46.70;;;;;;;21.77;100.00;99780.16;4985582;28;20078;-82
2022/11/18 10:33:35;;;;;;;48.83;46.33;;;;;;;21.93;100.00;99786.81;4987667;28;20057;-83
2022/11/18 10:36:19;;;;;;;48.15;45.75;;;;;;;21.82;100.00;99772.75;4986392;28;20077;-83
2022/11/18 10:38:47;;;;;;;48.95;46.45;;;;;;;22.49;100.00;99765.84;4985380;28;20505;-82
2022/11/18 10:41:17;;;;;;;46.92;44.63;;;;;;;21.79;99.32;99759.84;4981309;28;20133;-83
2022/11/18 10:43:52;;;;;;;46.60;44.30;;;;;;;21.74;100.00;99765.34;4981574;28;20047;-84
2022/11/18 10:46:25;;;;;;;47.42;44.97;;;;;;;21.48;100.00;99762.34;4986443;28;20081;-85
2022/11/18 10:49:13;;;;;;;47.60;45.20;;;;;;;21.88;100.00;99760.72;4984109;28;20141;-83
2022/11/18 10:51:42;;;;;;;47.60;45.20;;;;;;;22.14;100.00;99762.81;4991932;28;20042;-83
2022/11/18 10:54:14;;;;;;;46.95;44.65;;;;;;;23.26;100.00;99759.22;4981378;28;20046;-84
2022/11/18 10:56:50;;;;;;;49.80;46.97;;;;;;;22.25;100.00;99753.41;4986214;28;20054;-81
2022/11/18 10:59:28;;;;;;;48.20;45.78;;;;;;;21.99;100.00;99752.34;4984832;28;20140;-81
2022/11/18 11:02:00;;;;;;;47.20;44.75;;;;;;;21.53;100.00;99747.97;5007095;28;20054;-85
2022/11/18 11:04:29;;;;;;;48.88;46.08;;;;;;;21.77;100.00;99753.91;5022237;28;20136;-85
2022/11/18 11:06:58;;;;;;;47.33;44.63;;;;;;;21.65;100.00;99751.72;5028812;28;20077;-82
2022/11/18 11:09:29;;;;;;;47.63;45.03;;;;;;;21.85;100.00;99747.00;5029233;28;20076;-83
2022/11/18 11:12:00;;;;;;;50.43;47.33;;;;;;;22.05;100.00;99727.59;5028687;28;20532;-83
2022/11/18 11:14:35;;;;;;;50.70;47.75;;;;;;;22.36;100.00;99730.44;5030807;28;20049;-83
2022/11/18 11:17:09;;;;;;;49.05;46.50;;;;;;;23.00;100.00;99721.25;5026808;28;20489;-84
2022/11/18 11:19:50;;;;;;;48.97;46.38;;;;;;;23.31;100.00;99719.25;5026889;28;20100;-83
2022/11/18 11:22:18;;;;;;;49.65;47.05;;;;;;;22.80;100.00;99725.25;5025679;28;20061;-84
2022/11/18 11:24:45;;;;;;;52.42;49.83;;;;;;;24.02;89.20;99718.25;5025997;28;20490;-83
2022/11/18 11:27:27;;;;;;;52.47;49.78;;;;;;;23.99;91.53;99708.03;5027558;28;20129;-83
2022/11/18 11:30:16;;;;;;;50.83;48.22;;;;;;;23.82;95.48;99708.84;5024646;28;20041;-84